createdAt,value
2023-02-09T00:01:45.914Z,32.17
2023-02-09T00:04:17.751Z,29.73
2023-02-09T00:06:47.643Z,37.13
2023-02-09T00:09:21.696Z,30.20
2023-02-09T00:12:10.745Z,28.67
2023-02-09T00:14:49.567Z,35.80
2023-02-09T00:17:21.418Z,34.90
2023-02-09T00:19:52.009Z,32.13
2023-02-09T00:22:29.222Z,32.10
2023-02-09T00:25:05.764Z,32.90
2023-02-09T00:27:37.778Z,33.70
2023-02-09T00:30:11.766Z,35.17
2023-02-09T00:32:43.813Z,30.37
2023-02-09T00:35:20.039Z,34.37
2023-02-09T00:37:49.553Z,31.27
2023-02-09T00:40:26.905Z,34.23
2023-02-09T00:43:06.907Z,34.10
2023-02-09T00:45:42.278Z,32.83
2023-02-09T00:48:20.059Z,30.63
2023-02-09T00:50:48.705Z,32.53
2023-02-09T00:53:27.084Z,34.57
2023-02-09T00:56:00.423Z,27.97
2023-02-09T00:58:33.061Z,31.00
2023-02-09T01:01:22.314Z,28.40
2023-02-09T01:04:00.942Z,40.70
2023-02-09T01:06:39.598Z,36.87
2023-02-09T01:09:09.967Z,31.67
2023-02-09T01:11:42.140Z,30.53
2023-02-09T01:14:30.344Z,35.33
2023-02-09T01:17:06.129Z,30.67
2023-02-09T01:19:37.450Z,35.23
2023-02-09T01:22:07.226Z,38.30
2023-02-09T01:24:42.678Z,32.87
2023-02-09T01:27:14.115Z,36.93
2023-02-09T01:29:51.801Z,28.93
2023-02-09T01:32:30.429Z,30.43
2023-02-09T01:35:14.428Z,33.20
2023-02-09T01:37:44.173Z,27.70
2023-02-09T01:40:19.365Z,32.00
2023-02-09T01:42:57.470Z,37.43
2023-02-09T01:45:36.395Z,38.13
2023-02-09T01:48:08.630Z,38.30
2023-02-09T01:50:45.238Z,34.63
2023-02-09T01:53:29.935Z,33.00
2023-02-09T01:56:17.664Z,34.70
2023-02-09T01:58:51.462Z,30.30
2023-02-09T02:01:24.663Z,34.93
2023-02-09T02:04:00.998Z,35.00
2023-02-09T02:06:36.861Z,33.33
2023-02-09T02:09:20.445Z,31.00
2023-02-09T02:12:06.057Z,33.10
2023-02-09T02:14:40.711Z,34.27
2023-02-09T02:17:30.124Z,40.00
2023-02-09T02:20:48.799Z,34.73
2023-02-09T02:23:40.117Z,33.90
2023-02-09T02:26:45.877Z,33.13
2023-02-09T02:29:54.709Z,38.63
2023-02-09T02:32:45.617Z,32.40
2023-02-09T02:35:22.948Z,35.37
2023-02-09T02:38:06.180Z,30.03
2023-02-09T02:40:47.417Z,32.83
2023-02-09T02:43:26.886Z,46.07
2023-02-09T02:46:04.601Z,26.60
2023-02-09T02:48:51.425Z,39.13
2023-02-09T02:51:32.524Z,36.73
2023-02-09T02:54:10.351Z,32.80
2023-02-09T02:56:46.544Z,31.40
2023-02-09T02:59:23.993Z,37.90
2023-02-09T03:01:59.537Z,36.13
2023-02-09T03:04:40.883Z,36.30
2023-02-09T03:07:10.661Z,35.67
2023-02-09T03:09:50.678Z,34.83
2023-02-09T03:12:39.663Z,38.87
2023-02-09T03:15:41.103Z,43.00
2023-02-09T03:18:34.752Z,43.30
2023-02-09T03:21:30.574Z,38.47
2023-02-09T03:24:06.869Z,40.20
2023-02-09T03:26:48.211Z,35.17
2023-02-09T03:29:22.182Z,33.87
2023-02-09T03:31:53.893Z,35.03
2023-02-09T03:34:35.065Z,35.10
2023-02-09T03:37:08.813Z,39.90
2023-02-09T03:39:47.315Z,34.47
2023-02-09T03:42:29.347Z,33.97
2023-02-09T03:44:59.407Z,34.00
2023-02-09T03:47:31.531Z,38.87
2023-02-09T03:50:01.899Z,31.13
2023-02-09T03:52:42.558Z,36.40
2023-02-09T03:55:16.575Z,34.60
2023-02-09T03:57:50.414Z,36.90
2023-02-09T04:00:24.634Z,32.87
2023-02-09T04:02:55.342Z,37.93
2023-02-09T04:05:35.358Z,39.33
2023-02-09T04:08:09.796Z,35.73
2023-02-09T04:10:46.855Z,34.27
2023-02-09T04:13:24.498Z,38.80
2023-02-09T04:16:08.276Z,36.60
2023-02-09T04:18:43.146Z,36.73
2023-02-09T04:21:14.606Z,34.77
2023-02-09T04:23:49.873Z,42.10
2023-02-09T04:26:26.620Z,39.43
2023-02-09T04:28:56.254Z,32.47
2023-02-09T04:31:37.296Z,38.60
2023-02-09T04:34:07.187Z,41.13
2023-02-09T04:36:38.682Z,41.47
2023-02-09T04:39:29.191Z,36.17
2023-02-09T04:42:04.064Z,35.10
2023-02-09T04:44:35.769Z,32.40
2023-02-09T04:47:08.900Z,33.73
2023-02-09T04:49:45.292Z,35.43
2023-02-09T04:52:25.316Z,37.60
2023-02-09T04:54:56.380Z,37.23
2023-02-09T04:57:43.504Z,43.33
2023-02-09T05:00:26.730Z,40.63
2023-02-09T05:02:56.493Z,41.50
2023-02-09T05:05:28.079Z,40.40
2023-02-09T05:07:57.175Z,33.57
2023-02-09T05:10:34.630Z,38.57
2023-02-09T05:13:13.375Z,38.87
2023-02-09T05:15:59.380Z,35.67
2023-02-09T05:18:31.361Z,39.03
2023-02-09T05:21:10.196Z,39.97
2023-02-09T05:23:52.850Z,39.03
2023-02-09T05:26:30.350Z,42.77
2023-02-09T05:28:59.315Z,36.30
2023-02-09T05:31:35.659Z,39.53
2023-02-09T05:34:08.767Z,45.27
2023-02-09T05:36:47.053Z,42.27
2023-02-09T05:39:24.078Z,44.83
2023-02-09T05:42:13.417Z,45.40
2023-02-09T05:44:50.322Z,42.70
2023-02-09T05:47:25.834Z,43.63
2023-02-09T05:49:59.396Z,46.63
2023-02-09T05:52:31.166Z,45.23
2023-02-09T05:55:13.217Z,44.90
2023-02-09T05:57:56.386Z,47.93
2023-02-09T06:00:27.212Z,46.57
2023-02-09T06:02:58.803Z,44.77
2023-02-09T06:05:35.549Z,48.87
2023-02-09T06:08:07.924Z,48.53
2023-02-09T06:10:40.020Z,50.70
2023-02-09T06:13:17.226Z,44.70
2023-02-09T06:15:53.140Z,54.50
2023-02-09T06:18:36.312Z,49.87
2023-02-09T06:21:22.474Z,45.60
2023-02-09T06:23:54.597Z,47.73
2023-02-09T06:26:25.079Z,53.00
2023-02-09T06:28:56.106Z,44.03
2023-02-09T06:31:35.470Z,50.50
2023-02-09T06:34:13.756Z,49.40
2023-02-09T06:36:50.948Z,48.93
2023-02-09T06:39:36.311Z,42.50
2023-02-09T06:42:06.931Z,46.80
2023-02-09T06:44:39.696Z,46.30
2023-02-09T06:47:09.454Z,51.73
2023-02-09T06:49:51.521Z,43.30
2023-02-09T06:52:31.522Z,40.40
2023-02-09T06:55:06.292Z,42.83
2023-02-09T06:57:36.546Z,37.33
2023-02-09T07:00:15.563Z,47.07
2023-02-09T07:03:03.308Z,48.13
2023-02-09T07:05:34.005Z,43.70
2023-02-09T07:08:04.678Z,44.00
2023-02-09T07:10:32.937Z,41.43
2023-02-09T07:13:04.663Z,50.93
2023-02-09T07:15:39.667Z,48.43
2023-02-09T07:18:14.776Z,43.93
2023-02-09T07:20:43.049Z,41.10
2023-02-09T07:23:12.236Z,50.60
2023-02-09T07:25:45.404Z,42.60
2023-02-09T07:28:14.614Z,43.40
2023-02-09T07:30:49.344Z,42.27
2023-02-09T07:33:17.950Z,41.93
2023-02-09T07:35:47.540Z,42.90
2023-02-09T07:38:18.952Z,40.60
2023-02-09T07:40:56.133Z,43.47
2023-02-09T07:43:25.406Z,49.67
2023-02-09T07:46:17.254Z,47.73
2023-02-09T07:48:47.276Z,42.27
2023-02-09T07:51:17.148Z,43.00
2023-02-09T07:53:51.226Z,42.73
2023-02-09T07:56:34.101Z,44.30
2023-02-09T07:59:06.737Z,47.70
2023-02-09T08:01:46.172Z,40.47
2023-02-09T08:04:16.635Z,35.80
2023-02-09T08:06:50.268Z,37.47
2023-02-09T08:09:21.899Z,40.00
2023-02-09T08:11:54.462Z,37.47
2023-02-09T08:14:28.458Z,39.80
2023-02-09T08:17:16.355Z,36.57
2023-02-09T08:19:46.996Z,44.10
2023-02-09T08:22:19.198Z,34.20
2023-02-09T08:24:54.909Z,37.23
2023-02-09T08:27:24.215Z,38.10
2023-02-09T08:29:53.739Z,37.13
2023-02-09T08:32:28.192Z,33.60
2023-02-09T08:34:57.504Z,35.77
2023-02-09T08:37:29.371Z,30.60
2023-02-09T08:39:59.204Z,32.90
2023-02-09T08:42:30.440Z,36.20
2023-02-09T08:45:00.192Z,37.10
2023-02-09T08:47:46.834Z,37.97
2023-02-09T08:50:16.776Z,36.40
2023-02-09T08:52:46.480Z,34.77
2023-02-09T08:55:17.647Z,33.70
2023-02-09T08:57:46.069Z,36.37
2023-02-09T09:00:20.849Z,32.40
2023-02-09T09:02:51.802Z,31.47
2023-02-09T09:05:25.256Z,37.00
2023-02-09T09:07:54.722Z,38.10
2023-02-09T09:10:24.262Z,32.60
2023-02-09T09:12:54.619Z,36.03
2023-02-09T09:15:24.205Z,32.10
2023-02-09T09:18:05.133Z,35.00
2023-02-09T09:20:34.065Z,33.90
2023-02-09T09:23:08.223Z,33.00
2023-02-09T09:25:49.206Z,35.80
2023-02-09T09:28:20.402Z,32.93
2023-02-09T09:30:51.263Z,42.67
2023-02-09T09:33:23.509Z,34.57
2023-02-09T09:35:52.140Z,29.13
2023-02-09T09:38:24.493Z,29.93
2023-02-09T09:40:56.542Z,33.73
2023-02-09T09:43:35.724Z,31.30
2023-02-09T09:46:05.555Z,26.33
2023-02-09T09:48:52.485Z,25.30
2023-02-09T09:51:26.125Z,27.47
2023-02-09T09:54:01.254Z,30.20
2023-02-09T09:56:33.997Z,28.23
2023-02-09T09:59:03.900Z,26.30
2023-02-09T10:01:34.556Z,25.47
2023-02-09T10:04:10.930Z,25.97
2023-02-09T10:06:42.678Z,27.97
2023-02-09T10:09:23.847Z,25.93
2023-02-09T10:12:01.109Z,28.07
2023-02-09T10:14:32.809Z,31.10
2023-02-09T10:17:04.681Z,29.33
2023-02-09T10:19:40.052Z,29.87
2023-02-09T10:22:16.634Z,28.93
2023-02-09T10:24:46.168Z,27.47
2023-02-09T10:27:20.708Z,29.40
2023-02-09T10:29:49.657Z,32.30
2023-02-09T10:32:27.578Z,27.67
2023-02-09T10:35:04.955Z,30.43
2023-02-09T10:37:39.421Z,22.40
2023-02-09T10:40:15.945Z,21.80
2023-02-09T10:42:57.544Z,12.93
2023-02-09T10:45:30.023Z,14.40
2023-02-09T10:48:00.465Z,15.03
2023-02-09T10:50:34.574Z,16.50
2023-02-09T10:53:17.936Z,22.60
2023-02-09T10:55:47.962Z,21.47
2023-02-09T10:58:24.235Z,16.70
2023-02-09T11:01:03.716Z,17.63
2023-02-09T11:03:34.277Z,18.70
2023-02-09T11:06:09.428Z,17.60
2023-02-09T11:08:48.343Z,17.27
2023-02-09T11:11:30.606Z,24.23
2023-02-09T11:14:10.559Z,25.50
2023-02-09T11:16:59.130Z,19.60
2023-02-09T11:20:08.003Z,15.90
2023-02-09T11:23:29.246Z,17.83
2023-02-09T11:26:05.885Z,21.70
2023-02-09T11:28:53.718Z,22.20
2023-02-09T11:31:47.132Z,18.53
2023-02-09T11:37:37.641Z,17.33
2023-02-09T11:40:28.009Z,18.60
2023-02-09T11:43:10.532Z,23.23
2023-02-09T11:45:46.730Z,26.03
2023-02-09T11:48:26.870Z,18.80
2023-02-09T11:51:10.681Z,28.93
2023-02-09T11:53:46.136Z,18.80
2023-02-09T11:56:25.355Z,21.73
2023-02-09T11:59:02.654Z,19.13
2023-02-09T12:01:45.367Z,19.53
2023-02-09T12:04:23.931Z,19.77
2023-02-09T12:07:05.917Z,20.43
2023-02-09T12:09:55.529Z,21.73
2023-02-09T12:12:46.267Z,20.23
2023-02-09T12:15:25.021Z,17.37
2023-02-09T12:18:05.881Z,22.83
2023-02-09T12:20:56.288Z,21.70
2023-02-09T12:23:35.015Z,18.43
2023-02-09T12:26:42.421Z,18.73
2023-02-09T12:29:44.601Z,17.27
2023-02-09T12:32:50.813Z,21.20
2023-02-09T12:35:28.036Z,17.90
2023-02-09T12:38:21.326Z,19.57
2023-02-09T12:41:04.164Z,18.30
2023-02-09T12:43:47.865Z,18.17
2023-02-09T12:46:29.462Z,18.73
2023-02-09T12:49:11.553Z,24.70
2023-02-09T12:52:21.725Z,18.10
2023-02-09T12:54:54.252Z,18.33
2023-02-09T12:57:54.469Z,19.37
2023-02-09T13:00:44.812Z,18.90
2023-02-09T13:03:25.435Z,18.03
2023-02-09T13:05:58.676Z,23.83
2023-02-09T13:08:47.004Z,23.23
2023-02-09T13:11:32.851Z,22.50
2023-02-09T13:14:13.565Z,18.50
2023-02-09T13:17:16.624Z,19.83
2023-02-09T13:20:36.044Z,19.87
2023-02-09T13:23:33.237Z,20.60
2023-02-09T13:26:30.223Z,20.33
2023-02-09T13:29:22.008Z,19.43
2023-02-09T13:32:02.330Z,16.40
2023-02-09T13:34:40.385Z,20.70
2023-02-09T13:37:25.741Z,18.70
2023-02-09T13:40:03.182Z,19.47
2023-02-09T13:42:36.796Z,17.67
2023-02-09T13:45:23.459Z,20.90
2023-02-09T13:47:55.832Z,19.30
2023-02-09T13:50:28.375Z,24.87
2023-02-09T13:53:17.125Z,17.17
2023-02-09T13:55:48.445Z,17.67
2023-02-09T13:58:24.592Z,20.07
2023-02-09T14:00:55.914Z,16.20
2023-02-09T14:03:27.952Z,20.60
2023-02-09T14:06:02.881Z,18.77
2023-02-09T14:08:35.698Z,19.50
2023-02-09T14:11:14.781Z,20.80
2023-02-09T14:13:47.458Z,30.47
2023-02-09T14:16:29.531Z,28.00
2023-02-09T14:19:04.045Z,19.43
2023-02-09T14:21:48.660Z,20.83
2023-02-09T14:24:21.993Z,23.07
2023-02-09T14:27:03.282Z,25.77
2023-02-09T14:29:38.838Z,19.40
2023-02-09T14:32:33.062Z,22.00
2023-02-09T14:35:19.389Z,18.67
2023-02-09T14:37:59.416Z,20.70
2023-02-09T14:40:34.156Z,17.27
2023-02-09T14:43:22.808Z,21.10
2023-02-09T14:46:02.934Z,21.70
2023-02-09T14:48:34.939Z,19.20
2023-02-09T14:51:14.788Z,18.20
2023-02-09T14:53:56.818Z,21.13
2023-02-09T14:56:34.672Z,16.70
2023-02-09T14:59:05.754Z,16.20
2023-02-09T15:01:34.802Z,18.67
2023-02-09T15:04:04.596Z,17.67
2023-02-09T15:06:36.165Z,25.23
2023-02-09T15:09:15.370Z,18.93
2023-02-09T15:12:01.123Z,20.00
2023-02-09T15:14:40.341Z,16.47
2023-02-09T15:17:20.215Z,20.00
2023-02-09T15:19:50.311Z,22.67
2023-02-09T15:22:23.931Z,16.83
2023-02-09T15:25:02.703Z,17.90
2023-02-09T15:27:35.616Z,17.27
2023-02-09T15:30:21.743Z,14.90
2023-02-09T15:32:50.583Z,21.10
2023-02-09T15:35:22.664Z,17.40
2023-02-09T15:37:57.672Z,20.80
2023-02-09T15:40:48.990Z,17.30
2023-02-09T15:43:38.421Z,20.27
2023-02-09T15:46:28.065Z,18.20
2023-02-09T15:48:56.585Z,18.10
2023-02-09T15:51:29.967Z,16.93
2023-02-09T15:54:01.684Z,21.27
2023-02-09T15:56:38.647Z,18.80
2023-02-09T15:59:09.476Z,18.97
2023-02-09T16:01:40.426Z,16.73
2023-02-09T16:04:14.489Z,16.20
2023-02-09T16:06:55.469Z,14.53
2023-02-09T16:09:29.122Z,17.60
2023-02-09T16:12:10.506Z,19.20
2023-02-09T16:14:40.717Z,17.30
2023-02-09T16:17:09.666Z,18.03
2023-02-09T16:19:40.878Z,20.10
2023-02-09T16:22:11.830Z,18.93
2023-02-09T16:24:43.575Z,19.27
2023-02-09T16:27:24.809Z,33.80
2023-02-09T16:29:57.052Z,26.17
2023-02-09T16:32:33.313Z,24.17
2023-02-09T16:35:16.605Z,23.10
2023-02-09T16:37:51.393Z,17.67
2023-02-09T16:40:29.967Z,19.43
2023-02-09T16:43:06.352Z,22.80
2023-02-09T16:45:39.630Z,20.87
2023-02-09T16:48:14.424Z,20.90
2023-02-09T16:50:46.910Z,20.67
2023-02-09T16:53:19.242Z,21.27
2023-02-09T16:55:55.027Z,19.50
2023-02-09T16:58:26.825Z,19.93
2023-02-09T17:01:00.907Z,19.00
2023-02-09T17:03:41.337Z,22.77
2023-02-09T17:06:21.281Z,17.53
2023-02-09T17:09:07.311Z,17.93
2023-02-09T17:11:51.320Z,22.40
2023-02-09T17:14:26.265Z,16.27
2023-02-09T17:17:04.318Z,20.80
2023-02-09T17:19:46.944Z,24.23
2023-02-09T17:22:32.247Z,24.83
2023-02-09T17:25:13.495Z,17.23
2023-02-09T17:27:54.818Z,20.53
2023-02-09T17:30:52.579Z,17.70
2023-02-09T17:33:28.109Z,19.60
2023-02-09T17:36:25.835Z,22.13
2023-02-09T17:39:08.134Z,23.03
2023-02-09T17:41:51.456Z,19.77
2023-02-09T17:44:45.593Z,24.73
2023-02-09T17:47:26.465Z,21.90
2023-02-09T17:50:00.382Z,20.87
2023-02-09T17:52:39.342Z,20.83
2023-02-09T17:55:11.527Z,29.40
2023-02-09T17:57:41.617Z,23.40
2023-02-09T18:00:14.263Z,23.97
2023-02-09T18:02:59.810Z,22.60
2023-02-09T18:05:41.370Z,18.60
2023-02-09T18:08:16.273Z,21.80
2023-02-09T18:11:01.285Z,22.77
2023-02-09T18:13:36.259Z,21.10
2023-02-09T18:16:09.033Z,21.30
2023-02-09T18:19:07.314Z,20.37
2023-02-09T18:21:58.011Z,16.70
2023-02-09T18:24:38.585Z,26.20
2023-02-09T18:27:11.329Z,18.13
2023-02-09T18:29:51.399Z,23.30
2023-02-09T18:32:32.238Z,19.53
2023-02-09T18:35:08.320Z,28.87
2023-02-09T18:37:39.405Z,22.20
2023-02-09T18:40:22.769Z,19.07
2023-02-09T18:46:03.731Z,19.97
2023-02-09T18:48:44.949Z,21.27
2023-02-09T18:51:25.409Z,20.63
2023-02-09T18:54:04.004Z,23.40
2023-02-09T18:56:35.800Z,19.70
2023-02-09T18:59:13.040Z,17.70
2023-02-09T19:01:53.940Z,19.13
2023-02-09T19:04:32.310Z,19.63
2023-02-09T19:07:15.583Z,23.80
2023-02-09T19:09:58.832Z,21.97
2023-02-09T19:12:29.673Z,21.23
2023-02-09T19:15:00.666Z,20.73
2023-02-09T19:17:40.979Z,18.93
2023-02-09T19:20:24.515Z,23.33
2023-02-09T19:23:05.683Z,22.50
2023-02-09T19:25:42.629Z,22.90
2023-02-09T19:28:25.561Z,23.37
2023-02-09T19:31:05.913Z,22.53
2023-02-09T19:33:41.517Z,20.60
2023-02-09T19:36:25.685Z,21.10
2023-02-09T19:39:10.980Z,21.20
2023-02-09T19:41:57.484Z,22.67
2023-02-09T19:44:29.588Z,20.30
2023-02-09T19:47:00.004Z,25.37
2023-02-09T19:49:39.441Z,23.27
2023-02-09T19:52:21.792Z,23.50
2023-02-09T19:55:05.284Z,21.97
2023-02-09T19:57:44.030Z,22.43
2023-02-09T20:00:27.712Z,25.47
2023-02-09T20:03:00.743Z,26.77
2023-02-09T20:05:37.033Z,26.97
2023-02-09T20:08:11.009Z,22.17
2023-02-09T20:10:44.645Z,20.90
2023-02-09T20:13:24.460Z,25.30
2023-02-09T20:15:57.062Z,24.03
2023-02-09T20:18:29.360Z,24.27
2023-02-09T20:21:01.213Z,25.17
2023-02-09T20:23:40.541Z,21.23
2023-02-09T20:26:33.998Z,22.83
2023-02-09T20:29:09.194Z,23.70
2023-02-09T20:31:42.611Z,27.53
2023-02-09T20:34:19.529Z,24.70
2023-02-09T20:37:08.967Z,21.30
2023-02-09T20:39:43.413Z,21.63
2023-02-09T20:45:50.041Z,22.03
2023-02-09T20:48:24.021Z,22.13
2023-02-09T20:50:56.867Z,21.00
2023-02-09T20:53:30.156Z,20.20
2023-02-09T20:56:13.070Z,20.97
2023-02-09T20:58:49.713Z,22.80
2023-02-09T21:01:24.165Z,26.17
2023-02-09T21:03:57.596Z,19.67
2023-02-09T21:06:30.635Z,21.47
2023-02-09T21:09:08.983Z,25.20
2023-02-09T21:11:44.982Z,21.23
2023-02-09T21:14:41.842Z,24.97
2023-02-09T21:17:13.181Z,20.80
2023-02-09T21:19:52.983Z,19.27
2023-02-09T21:22:27.038Z,24.93
2023-02-09T21:24:58.196Z,25.60
2023-02-09T21:27:45.429Z,23.43
2023-02-09T21:30:27.807Z,22.43
2023-02-09T21:33:12.488Z,19.50
2023-02-09T21:35:45.238Z,22.13
2023-02-09T21:38:20.791Z,21.27
2023-02-09T21:40:55.647Z,21.07
2023-02-09T21:43:33.062Z,22.57
2023-02-09T21:46:08.409Z,20.90
2023-02-09T21:48:40.686Z,21.07
2023-02-09T21:51:10.681Z,25.17
2023-02-09T21:53:40.653Z,30.83
2023-02-09T21:56:12.517Z,24.83
2023-02-09T21:58:41.195Z,22.10
2023-02-09T22:01:13.333Z,30.80
2023-02-09T22:03:51.018Z,21.87
2023-02-09T22:06:21.861Z,20.67
2023-02-09T22:08:52.354Z,22.43
2023-02-09T22:11:29.724Z,24.83
2023-02-09T22:13:57.997Z,22.97
2023-02-09T22:16:29.586Z,22.57
2023-02-09T22:19:00.220Z,28.93
2023-02-09T22:21:35.582Z,26.70
2023-02-09T22:24:05.436Z,22.33
2023-02-09T22:26:35.009Z,26.13
2023-02-09T22:29:06.126Z,23.60
2023-02-09T22:31:51.680Z,24.83
2023-02-09T22:34:20.063Z,26.33
2023-02-09T22:36:52.970Z,27.73
2023-02-09T22:39:22.682Z,24.97
2023-02-09T22:41:57.078Z,25.93
2023-02-09T22:44:30.291Z,31.73
2023-02-09T22:47:04.726Z,32.17
2023-02-09T22:49:33.216Z,29.23
2023-02-09T22:52:07.203Z,24.60
2023-02-09T22:54:36.117Z,33.23
2023-02-09T22:57:14.654Z,35.13
2023-02-09T22:59:44.294Z,29.07
2023-02-09T23:02:26.066Z,36.43
2023-02-09T23:05:03.979Z,35.00
2023-02-09T23:07:38.743Z,49.20
2023-02-09T23:10:10.026Z,37.93
2023-02-09T23:12:41.700Z,39.77
2023-02-09T23:15:21.190Z,39.60
2023-02-09T23:17:54.171Z,31.93
2023-02-09T23:20:25.694Z,32.17
2023-02-09T23:22:56.448Z,30.33
2023-02-09T23:25:27.309Z,31.40
2023-02-09T23:27:59.060Z,31.43
2023-02-09T23:30:28.585Z,37.83
2023-02-09T23:33:00.808Z,34.43
2023-02-09T23:35:32.016Z,34.93
2023-02-09T23:38:11.310Z,32.97
2023-02-09T23:40:44.014Z,27.07
2023-02-09T23:43:26.483Z,26.60
2023-02-09T23:46:00.280Z,24.53
2023-02-09T23:48:44.353Z,25.67
2023-02-09T23:51:24.149Z,28.13
2023-02-09T23:53:55.453Z,26.30
2023-02-09T23:56:24.675Z,26.07
2023-02-09T23:58:55.375Z,26.83
